Terminal Aerodrome Forecast
Issued by NWS

Home | Current Version | Previous Version | Text Only | Print | Product List | Glossary On
Versions: 1 2 3 4 5 6 7 8 9 10 11
000
FTUS45 KVEF 272300
TAFVGT
TAF
KVGT 272320Z 2800/2824 16007KT P6SM FEW100 SCT250
     FM280800 32007KT P6SM FEW100 SCT150
     FM281200 25012G22KT P6SM FEW100 SCT150
     FM281900 26018G28KT P6SM FEW100 SCT150=

USA.gov is the U.S. government's official web portal to all federal, state and local government web resources and services.